Terminal Aerodrome Forecast
Issued by NWS

Home | Current Version | Previous Version | Text Only | Print | Product List | Glossary On
Versions: 1 2 3 4 5 6 7 8 9 10 11 12 13
657
FTUS46 KSTO 190520
TAFMHR
TAF
KMHR 190520Z 1906/2006 VRB04KT P6SM FEW250
     FM191900 31009KT P6SM SCT250
     FM200300 20004KT P6SM BKN250=

USA.gov is the U.S. government's official web portal to all federal, state and local government web resources and services.